Airfield :
LOGIN :

Register | Disclaimer

   EN    FR    IT 

 










Legend :    VFR   Marginal VFR   IFR   Intensive IFR   Very Intensive IFR
Visi :
Ceiling :
>= 8 km
>= 3000ft
5 to 8 km
1000 to 3000 ft
1500m to 5 km
500 to 1000 ft
800 to 1500m
200 to 500 ft
< 800m
< 200 ft
Symbols :   Thunderstorms  Fog  Heavy snow  Heavy precipitations  Wind > 20 kt
SIGMETs :     Misc.  Thunderstorms  Icing  Turbulence  Mountain Waves  Volcanic Ashes







- Airport Elevation : 348 ft
- IATA code : STN
- Download approach charts


EGSS - London Stansted

CURRENT METAR :
  • 172350Z AUTO 24010KT 9999 NCD 16/12 Q1020

EXPIRED METARs :
  • 172320Z AUTO 24008KT 9999 NCD 16/12 Q1021
  • 172250Z AUTO 23009KT 9999 NCD 16/12 Q1020
  • 172220Z AUTO 24008KT 9999 NCD 16/12 Q1020
  • 172150Z AUTO 24008KT 9999 NCD 16/11 Q1020
  • 172120Z AUTO 25009KT 9999 NCD 17/11 Q1020

TAF TAF EGSS
Valid from the 18 at 00:00 until the 19 at 06:00 UTC


172252Z 1800/1906 25010KT 9999 SCT035
PROB30
TEMPO 1801/1809 BKN012
PROB30
TEMPO 1900/1906 BKN010
ATIS : +44 1279 669 325
No reported NOTAMs for that airfield.
1 SIGMET reported for the London FIR (EGTT) :
 
Severe mountain waves
EGTT SIGMET 03 VALID 172330/180330 EGRR
EGTT LONDON FIR SEV MTW FCST WI N5500 W00530 - N5500 E00000 - N5300 W00130 - N5300 W00530 - N5500 W00530 FL040/160 STNR NC=



MET'MAP, your aeronautical weather chart ! - Copyright ORBIFLY December 2007 - Disclaimer

ORBIFLY MET'MAP TEAM :

Programming & Development : Alexandra Zaïnal
Concept & Development : Baudouin d'Aumeries
Co-Development & Prog : Marc-Olivier Méhu
Technical & hardware support : Manuel Goepfert

Contact : metmap@orbifly.com




SOURCES & CREDITS :

   NOAA